sensor_id;sensor_type;location;lat;lon;timestamp;P1;durP1;ratioP1;P2;durP2;ratioP2
61903;SDS011;47857;52.270;6.804;2023-07-24T00:02:15;3.05;;;2.17;;
61903;SDS011;47857;52.270;6.804;2023-07-24T00:04:40;4.28;;;2.40;;
61903;SDS011;47857;52.270;6.804;2023-07-24T00:07:07;3.10;;;2.30;;
61903;SDS011;47857;52.270;6.804;2023-07-24T00:09:32;6.40;;;2.33;;
61903;SDS011;47857;52.270;6.804;2023-07-24T00:11:58;4.10;;;2.22;;
61903;SDS011;47857;52.270;6.804;2023-07-24T00:14:23;3.83;;;2.30;;
61903;SDS011;47857;52.270;6.804;2023-07-24T00:16:49;2.92;;;2.47;;
61903;SDS011;47857;52.270;6.804;2023-07-24T00:19:15;4.18;;;2.28;;
61903;SDS011;47857;52.270;6.804;2023-07-24T00:21:41;3.85;;;2.60;;
61903;SDS011;47857;52.270;6.804;2023-07-24T00:24:06;3.35;;;2.33;;
61903;SDS011;47857;52.270;6.804;2023-07-24T00:26:32;3.15;;;2.33;;
61903;SDS011;47857;52.270;6.804;2023-07-24T00:28:59;3.05;;;2.40;;
61903;SDS011;47857;52.270;6.804;2023-07-24T00:31:24;3.58;;;2.47;;
61903;SDS011;47857;52.270;6.804;2023-07-24T00:33:50;4.53;;;2.60;;
61903;SDS011;47857;52.270;6.804;2023-07-24T00:36:15;3.65;;;2.60;;
61903;SDS011;47857;52.270;6.804;2023-07-24T00:38:41;4.35;;;2.95;;
61903;SDS011;47857;52.270;6.804;2023-07-24T00:41:06;5.00;;;2.72;;
61903;SDS011;47857;52.270;6.804;2023-07-24T00:43:32;3.53;;;2.40;;
61903;SDS011;47857;52.270;6.804;2023-07-24T00:45:58;4.13;;;2.30;;
61903;SDS011;47857;52.270;6.804;2023-07-24T00:48:23;2.85;;;2.38;;
61903;SDS011;47857;52.270;6.804;2023-07-24T00:50:49;2.60;;;2.30;;
61903;SDS011;47857;52.270;6.804;2023-07-24T00:53:15;2.60;;;2.38;;
61903;SDS011;47857;52.270;6.804;2023-07-24T00:55:41;2.95;;;2.22;;
61903;SDS011;47857;52.270;6.804;2023-07-24T00:58:07;3.13;;;2.38;;
61903;SDS011;47857;52.270;6.804;2023-07-24T01:00:36;3.03;;;2.47;;
61903;SDS011;47857;52.270;6.804;2023-07-24T01:03:03;2.67;;;2.38;;
61903;SDS011;47857;52.270;6.804;2023-07-24T01:05:29;2.92;;;2.60;;
61903;SDS011;47857;52.270;6.804;2023-07-24T01:07:55;3.22;;;2.60;;
61903;SDS011;47857;52.270;6.804;2023-07-24T01:10:21;2.70;;;2.45;;
61903;SDS011;47857;52.270;6.804;2023-07-24T01:15:36;3.95;;;2.88;;
61903;SDS011;47857;52.270;6.804;2023-07-24T01:18:14;3.35;;;3.00;;
61903;SDS011;47857;52.270;6.804;2023-07-24T01:20:47;4.60;;;2.97;;
61903;SDS011;47857;52.270;6.804;2023-07-24T01:25:56;5.40;;;2.78;;
61903;SDS011;47857;52.270;6.804;2023-07-24T01:28:23;3.30;;;3.00;;
61903;SDS011;47857;52.270;6.804;2023-07-24T01:30:49;4.25;;;3.28;;
61903;SDS011;47857;52.270;6.804;2023-07-24T01:33:14;3.30;;;3.00;;
61903;SDS011;47857;52.270;6.804;2023-07-24T01:35:41;3.83;;;3.20;;
61903;SDS011;47857;52.270;6.804;2023-07-24T01:38:11;5.25;;;3.40;;
61903;SDS011;47857;52.270;6.804;2023-07-24T01:40:38;3.58;;;2.95;;
61903;SDS011;47857;52.270;6.804;2023-07-24T01:43:05;4.57;;;3.40;;
61903;SDS011;47857;52.270;6.804;2023-07-24T01:45:30;3.80;;;3.38;;
61903;SDS011;47857;52.270;6.804;2023-07-24T01:47:57;4.38;;;3.08;;
61903;SDS011;47857;52.270;6.804;2023-07-24T01:50:22;4.05;;;3.58;;
61903;SDS011;47857;52.270;6.804;2023-07-24T01:52:48;4.97;;;3.20;;
61903;SDS011;47857;52.270;6.804;2023-07-24T01:55:14;4.00;;;3.60;;
61903;SDS011;47857;52.270;6.804;2023-07-24T01:57:39;6.15;;;3.35;;
61903;SDS011;47857;52.270;6.804;2023-07-24T02:00:07;3.95;;;3.30;;
61903;SDS011;47857;52.270;6.804;2023-07-24T02:02:33;3.85;;;3.17;;
61903;SDS011;47857;52.270;6.804;2023-07-24T02:04:58;5.57;;;3.22;;
61903;SDS011;47857;52.270;6.804;2023-07-24T02:07:24;4.18;;;3.03;;
61903;SDS011;47857;52.270;6.804;2023-07-24T02:09:49;4.15;;;3.10;;
61903;SDS011;47857;52.270;6.804;2023-07-24T02:12:15;4.05;;;3.40;;
61903;SDS011;47857;52.270;6.804;2023-07-24T02:14:41;5.95;;;3.20;;
61903;SDS011;47857;52.270;6.804;2023-07-24T02:17:06;3.75;;;3.10;;
61903;SDS011;47857;52.270;6.804;2023-07-24T02:19:33;3.38;;;3.00;;
61903;SDS011;47857;52.270;6.804;2023-07-24T02:21:58;4.32;;;3.10;;
61903;SDS011;47857;52.270;6.804;2023-07-24T02:24:24;4.68;;;3.20;;
61903;SDS011;47857;52.270;6.804;2023-07-24T02:26:49;5.05;;;3.40;;
61903;SDS011;47857;52.270;6.804;2023-07-24T02:29:15;4.75;;;3.05;;
61903;SDS011;47857;52.270;6.804;2023-07-24T02:31:42;3.60;;;2.95;;
61903;SDS011;47857;52.270;6.804;2023-07-24T02:34:08;3.42;;;3.10;;
61903;SDS011;47857;52.270;6.804;2023-07-24T02:36:33;4.47;;;3.05;;
61903;SDS011;47857;52.270;6.804;2023-07-24T02:38:59;4.40;;;2.85;;
61903;SDS011;47857;52.270;6.804;2023-07-24T02:41:25;4.38;;;3.33;;
61903;SDS011;47857;52.270;6.804;2023-07-24T02:43:50;3.50;;;3.17;;
61903;SDS011;47857;52.270;6.804;2023-07-24T02:46:18;5.07;;;3.17;;
61903;SDS011;47857;52.270;6.804;2023-07-24T02:48:43;5.55;;;3.45;;
61903;SDS011;47857;52.270;6.804;2023-07-24T02:51:09;4.75;;;3.17;;
61903;SDS011;47857;52.270;6.804;2023-07-24T02:53:34;4.10;;;3.47;;
61903;SDS011;47857;52.270;6.804;2023-07-24T02:56:03;4.50;;;3.58;;
61903;SDS011;47857;52.270;6.804;2023-07-24T02:58:28;4.30;;;3.90;;
61903;SDS011;47857;52.270;6.804;2023-07-24T03:00:54;6.75;;;3.40;;
61903;SDS011;47857;52.270;6.804;2023-07-24T03:03:27;4.28;;;3.42;;
61903;SDS011;47857;52.270;6.804;2023-07-24T03:05:53;5.18;;;4.22;;
61903;SDS011;47857;52.270;6.804;2023-07-24T03:08:20;5.97;;;3.70;;
61903;SDS011;47857;52.270;6.804;2023-07-24T03:10:46;5.68;;;4.25;;
61903;SDS011;47857;52.270;6.804;2023-07-24T03:13:14;4.70;;;4.20;;
61903;SDS011;47857;52.270;6.804;2023-07-24T03:15:40;5.10;;;4.50;;
61903;SDS011;47857;52.270;6.804;2023-07-24T03:18:05;5.53;;;4.60;;
61903;SDS011;47857;52.270;6.804;2023-07-24T03:20:31;8.52;;;4.80;;
61903;SDS011;47857;52.270;6.804;2023-07-24T03:22:57;5.85;;;3.97;;
61903;SDS011;47857;52.270;6.804;2023-07-24T03:25:22;5.00;;;4.30;;
61903;SDS011;47857;52.270;6.804;2023-07-24T03:27:48;6.13;;;4.90;;
61903;SDS011;47857;52.270;6.804;2023-07-24T03:30:14;9.75;;;4.88;;
61903;SDS011;47857;52.270;6.804;2023-07-24T03:32:39;5.25;;;4.50;;
61903;SDS011;47857;52.270;6.804;2023-07-24T03:35:06;8.95;;;5.20;;
61903;SDS011;47857;52.270;6.804;2023-07-24T03:37:32;5.85;;;4.97;;
61903;SDS011;47857;52.270;6.804;2023-07-24T03:39:59;6.45;;;5.00;;
61903;SDS011;47857;52.270;6.804;2023-07-24T03:42:26;6.72;;;4.97;;
61903;SDS011;47857;52.270;6.804;2023-07-24T03:44:53;5.90;;;5.00;;
61903;SDS011;47857;52.270;6.804;2023-07-24T03:47:19;7.05;;;5.38;;
61903;SDS011;47857;52.270;6.804;2023-07-24T03:49:45;6.28;;;5.20;;
61903;SDS011;47857;52.270;6.804;2023-07-24T03:52:10;7.85;;;5.40;;
61903;SDS011;47857;52.270;6.804;2023-07-24T03:54:36;7.63;;;5.75;;
61903;SDS011;47857;52.270;6.804;2023-07-24T03:57:01;6.45;;;5.28;;
61903;SDS011;47857;52.270;6.804;2023-07-24T03:59:27;7.93;;;5.43;;
61903;SDS011;47857;52.270;6.804;2023-07-24T04:01:53;7.97;;;5.40;;
61903;SDS011;47857;52.270;6.804;2023-07-24T04:04:18;8.75;;;4.93;;
61903;SDS011;47857;52.270;6.804;2023-07-24T04:06:45;7.38;;;5.28;;
61903;SDS011;47857;52.270;6.804;2023-07-24T04:09:11;10.27;;;5.53;;
61903;SDS011;47857;52.270;6.804;2023-07-24T04:11:39;8.13;;;5.60;;
61903;SDS011;47857;52.270;6.804;2023-07-24T04:14:05;6.72;;;5.45;;
61903;SDS011;47857;52.270;6.804;2023-07-24T04:16:31;7.90;;;5.07;;
61903;SDS011;47857;52.270;6.804;2023-07-24T04:18:56;8.45;;;5.38;;
61903;SDS011;47857;52.270;6.804;2023-07-24T04:21:22;7.20;;;5.82;;
61903;SDS011;47857;52.270;6.804;2023-07-24T04:23:48;8.50;;;5.82;;
61903;SDS011;47857;52.270;6.804;2023-07-24T04:26:13;7.35;;;5.38;;
61903;SDS011;47857;52.270;6.804;2023-07-24T04:28:39;10.40;;;5.40;;
61903;SDS011;47857;52.270;6.804;2023-07-24T04:31:04;8.43;;;5.60;;
61903;SDS011;47857;52.270;6.804;2023-07-24T04:33:30;10.30;;;6.03;;
61903;SDS011;47857;52.270;6.804;2023-07-24T04:35:56;9.90;;;6.22;;
61903;SDS011;47857;52.270;6.804;2023-07-24T04:38:21;9.70;;;5.90;;
61903;SDS011;47857;52.270;6.804;2023-07-24T04:40:47;9.02;;;6.10;;
61903;SDS011;47857;52.270;6.804;2023-07-24T04:43:13;8.02;;;5.53;;
61903;SDS011;47857;52.270;6.804;2023-07-24T04:45:38;7.80;;;5.70;;
61903;SDS011;47857;52.270;6.804;2023-07-24T04:48:04;11.07;;;6.32;;
61903;SDS011;47857;52.270;6.804;2023-07-24T04:50:30;7.60;;;5.60;;
61903;SDS011;47857;52.270;6.804;2023-07-24T04:52:56;7.78;;;5.43;;
61903;SDS011;47857;52.270;6.804;2023-07-24T04:55:23;9.48;;;5.22;;
61903;SDS011;47857;52.270;6.804;2023-07-24T04:57:48;8.63;;;5.55;;
61903;SDS011;47857;52.270;6.804;2023-07-24T05:00:14;7.15;;;5.38;;
61903;SDS011;47857;52.270;6.804;2023-07-24T05:02:39;7.75;;;4.90;;
61903;SDS011;47857;52.270;6.804;2023-07-24T05:05:05;7.25;;;4.90;;
61903;SDS011;47857;52.270;6.804;2023-07-24T05:07:31;8.35;;;4.93;;
61903;SDS011;47857;52.270;6.804;2023-07-24T05:09:57;9.68;;;5.57;;
61903;SDS011;47857;52.270;6.804;2023-07-24T05:12:23;10.55;;;5.18;;
61903;SDS011;47857;52.270;6.804;2023-07-24T05:14:48;7.45;;;5.15;;
61903;SDS011;47857;52.270;6.804;2023-07-24T05:17:14;6.95;;;5.10;;
61903;SDS011;47857;52.270;6.804;2023-07-24T05:19:39;6.70;;;5.05;;
61903;SDS011;47857;52.270;6.804;2023-07-24T05:22:05;8.65;;;5.38;;
61903;SDS011;47857;52.270;6.804;2023-07-24T05:24:31;8.43;;;5.85;;
61903;SDS011;47857;52.270;6.804;2023-07-24T05:26:56;7.32;;;5.25;;
61903;SDS011;47857;52.270;6.804;2023-07-24T05:29:22;7.88;;;5.43;;
61903;SDS011;47857;52.270;6.804;2023-07-24T05:31:47;9.25;;;5.93;;
61903;SDS011;47857;52.270;6.804;2023-07-24T05:34:13;8.07;;;6.30;;
61903;SDS011;47857;52.270;6.804;2023-07-24T05:36:40;21.17;;;13.93;;
61903;SDS011;47857;52.270;6.804;2023-07-24T05:39:05;19.67;;;12.55;;
61903;SDS011;47857;52.270;6.804;2023-07-24T05:41:31;19.65;;;12.13;;
61903;SDS011;47857;52.270;6.804;2023-07-24T05:43:56;23.65;;;16.73;;
61903;SDS011;47857;52.270;6.804;2023-07-24T05:46:22;20.60;;;12.40;;
61903;SDS011;47857;52.270;6.804;2023-07-24T05:48:48;15.63;;;9.85;;
61903;SDS011;47857;52.270;6.804;2023-07-24T05:51:13;9.55;;;5.60;;
61903;SDS011;47857;52.270;6.804;2023-07-24T05:53:39;5.85;;;3.60;;
61903;SDS011;47857;52.270;6.804;2023-07-24T05:56:04;5.78;;;4.68;;
61903;SDS011;47857;52.270;6.804;2023-07-24T05:58:30;5.25;;;4.47;;
61903;SDS011;47857;52.270;6.804;2023-07-24T06:00:56;4.50;;;3.95;;
61903;SDS011;47857;52.270;6.804;2023-07-24T06:03:22;4.47;;;3.55;;
61903;SDS011;47857;52.270;6.804;2023-07-24T06:05:52;6.13;;;4.60;;
61903;SDS011;47857;52.270;6.804;2023-07-24T06:08:20;5.75;;;5.15;;
61903;SDS011;47857;52.270;6.804;2023-07-24T06:10:47;6.07;;;5.25;;
61903;SDS011;47857;52.270;6.804;2023-07-24T06:13:14;8.40;;;5.68;;
61903;SDS011;47857;52.270;6.804;2023-07-24T06:15:43;7.80;;;5.22;;
61903;SDS011;47857;52.270;6.804;2023-07-24T06:18:09;6.45;;;4.40;;
61903;SDS011;47857;52.270;6.804;2023-07-24T06:20:35;7.35;;;5.85;;
61903;SDS011;47857;52.270;6.804;2023-07-24T06:23:01;6.35;;;5.63;;
61903;SDS011;47857;52.270;6.804;2023-07-24T06:25:30;7.75;;;5.15;;
61903;SDS011;47857;52.270;6.804;2023-07-24T06:27:56;6.75;;;5.65;;
61903;SDS011;47857;52.270;6.804;2023-07-24T06:30:22;7.28;;;5.68;;
61903;SDS011;47857;52.270;6.804;2023-07-24T06:32:47;7.28;;;5.30;;
61903;SDS011;47857;52.270;6.804;2023-07-24T06:35:13;7.03;;;5.35;;
61903;SDS011;47857;52.270;6.804;2023-07-24T06:37:38;5.95;;;4.68;;
61903;SDS011;47857;52.270;6.804;2023-07-24T06:40:05;6.50;;;5.35;;
61903;SDS011;47857;52.270;6.804;2023-07-24T06:42:32;6.63;;;5.00;;
61903;SDS011;47857;52.270;6.804;2023-07-24T06:44:57;5.68;;;4.85;;
61903;SDS011;47857;52.270;6.804;2023-07-24T06:47:23;7.32;;;5.05;;
61903;SDS011;47857;52.270;6.804;2023-07-24T06:49:49;5.13;;;4.53;;
61903;SDS011;47857;52.270;6.804;2023-07-24T06:52:15;5.63;;;4.80;;
61903;SDS011;47857;52.270;6.804;2023-07-24T06:54:41;8.70;;;5.35;;
61903;SDS011;47857;52.270;6.804;2023-07-24T06:57:06;6.35;;;5.43;;
61903;SDS011;47857;52.270;6.804;2023-07-24T06:59:32;6.47;;;5.60;;
61903;SDS011;47857;52.270;6.804;2023-07-24T07:01:58;7.13;;;5.90;;
61903;SDS011;47857;52.270;6.804;2023-07-24T07:04:23;7.55;;;6.18;;
61903;SDS011;47857;52.270;6.804;2023-07-24T07:06:49;7.28;;;5.25;;
61903;SDS011;47857;52.270;6.804;2023-07-24T07:09:14;8.52;;;6.22;;
61903;SDS011;47857;52.270;6.804;2023-07-24T07:11:40;8.02;;;6.15;;
61903;SDS011;47857;52.270;6.804;2023-07-24T07:14:05;7.25;;;6.40;;
61903;SDS011;47857;52.270;6.804;2023-07-24T07:16:34;8.50;;;6.93;;
61903;SDS011;47857;52.270;6.804;2023-07-24T07:19:00;8.63;;;7.25;;
61903;SDS011;47857;52.270;6.804;2023-07-24T07:21:25;13.65;;;7.22;;
61903;SDS011;47857;52.270;6.804;2023-07-24T07:23:51;13.38;;;6.78;;
61903;SDS011;47857;52.270;6.804;2023-07-24T07:26:16;8.45;;;7.55;;
61903;SDS011;47857;52.270;6.804;2023-07-24T07:28:42;9.40;;;8.13;;
61903;SDS011;47857;52.270;6.804;2023-07-24T07:31:10;11.20;;;8.35;;
61903;SDS011;47857;52.270;6.804;2023-07-24T07:33:35;10.65;;;8.48;;
61903;SDS011;47857;52.270;6.804;2023-07-24T07:36:01;10.02;;;8.23;;
61903;SDS011;47857;52.270;6.804;2023-07-24T07:38:29;11.00;;;8.13;;
61903;SDS011;47857;52.270;6.804;2023-07-24T07:40:54;12.57;;;7.68;;
61903;SDS011;47857;52.270;6.804;2023-07-24T07:43:20;9.82;;;7.55;;
61903;SDS011;47857;52.270;6.804;2023-07-24T07:45:46;13.60;;;9.20;;
61903;SDS011;47857;52.270;6.804;2023-07-24T07:48:12;10.13;;;8.32;;
61903;SDS011;47857;52.270;6.804;2023-07-24T07:50:40;11.45;;;7.55;;
61903;SDS011;47857;52.270;6.804;2023-07-24T07:53:05;11.50;;;6.93;;
61903;SDS011;47857;52.270;6.804;2023-07-24T07:55:31;9.60;;;7.50;;
61903;SDS011;47857;52.270;6.804;2023-07-24T07:57:56;12.57;;;8.07;;
61903;SDS011;47857;52.270;6.804;2023-07-24T08:00:22;12.15;;;7.80;;
61903;SDS011;47857;52.270;6.804;2023-07-24T08:02:47;10.10;;;7.75;;
61903;SDS011;47857;52.270;6.804;2023-07-24T08:05:13;11.90;;;7.03;;
61903;SDS011;47857;52.270;6.804;2023-07-24T08:07:39;8.75;;;7.80;;
61903;SDS011;47857;52.270;6.804;2023-07-24T08:10:05;11.30;;;7.90;;
61903;SDS011;47857;52.270;6.804;2023-07-24T08:12:31;9.75;;;7.13;;
61903;SDS011;47857;52.270;6.804;2023-07-24T08:14:57;10.35;;;7.38;;
61903;SDS011;47857;52.270;6.804;2023-07-24T08:17:22;8.20;;;6.85;;
61903;SDS011;47857;52.270;6.804;2023-07-24T08:19:48;11.07;;;6.28;;
61903;SDS011;47857;52.270;6.804;2023-07-24T08:22:14;9.82;;;6.78;;
61903;SDS011;47857;52.270;6.804;2023-07-24T08:24:39;9.80;;;6.38;;
61903;SDS011;47857;52.270;6.804;2023-07-24T08:27:05;8.55;;;5.85;;
61903;SDS011;47857;52.270;6.804;2023-07-24T08:29:31;9.82;;;6.10;;
61903;SDS011;47857;52.270;6.804;2023-07-24T08:31:56;7.07;;;5.93;;
61903;SDS011;47857;52.270;6.804;2023-07-24T08:34:22;8.30;;;6.20;;
61903;SDS011;47857;52.270;6.804;2023-07-24T08:36:48;6.93;;;5.63;;
61903;SDS011;47857;52.270;6.804;2023-07-24T08:39:13;6.78;;;5.10;;
61903;SDS011;47857;52.270;6.804;2023-07-24T08:41:39;6.70;;;5.78;;
61903;SDS011;47857;52.270;6.804;2023-07-24T08:44:05;8.70;;;5.55;;
61903;SDS011;47857;52.270;6.804;2023-07-24T08:46:35;9.75;;;7.30;;
61903;SDS011;47857;52.270;6.804;2023-07-24T08:49:02;9.23;;;7.20;;
61903;SDS011;47857;52.270;6.804;2023-07-24T08:51:28;9.60;;;7.22;;
61903;SDS011;47857;52.270;6.804;2023-07-24T08:53:55;13.23;;;7.35;;
61903;SDS011;47857;52.270;6.804;2023-07-24T08:56:21;9.82;;;7.10;;
61903;SDS011;47857;52.270;6.804;2023-07-24T08:58:47;10.45;;;6.97;;
61903;SDS011;47857;52.270;6.804;2023-07-24T09:01:12;6.50;;;5.18;;
61903;SDS011;47857;52.270;6.804;2023-07-24T09:03:38;7.63;;;5.82;;
61903;SDS011;47857;52.270;6.804;2023-07-24T09:06:04;8.25;;;6.85;;
61903;SDS011;47857;52.270;6.804;2023-07-24T09:08:34;9.25;;;5.75;;
61903;SDS011;47857;52.270;6.804;2023-07-24T09:11:00;7.00;;;5.05;;
61903;SDS011;47857;52.270;6.804;2023-07-24T09:13:26;8.13;;;5.53;;
61903;SDS011;47857;52.270;6.804;2023-07-24T09:15:53;5.78;;;4.78;;
61903;SDS011;47857;52.270;6.804;2023-07-24T09:18:19;8.68;;;5.57;;
61903;SDS011;47857;52.270;6.804;2023-07-24T09:20:45;6.88;;;5.32;;
61903;SDS011;47857;52.270;6.804;2023-07-24T09:23:11;9.50;;;6.75;;
61903;SDS011;47857;52.270;6.804;2023-07-24T09:25:38;6.68;;;5.18;;
61903;SDS011;47857;52.270;6.804;2023-07-24T09:28:15;7.32;;;5.47;;
61903;SDS011;47857;52.270;6.804;2023-07-24T09:30:42;9.73;;;6.82;;
61903;SDS011;47857;52.270;6.804;2023-07-24T09:33:16;9.98;;;6.47;;
61903;SDS011;47857;52.270;6.804;2023-07-24T09:35:42;9.15;;;6.90;;
61903;SDS011;47857;52.270;6.804;2023-07-24T09:38:08;10.98;;;7.15;;
61903;SDS011;47857;52.270;6.804;2023-07-24T09:40:41;11.70;;;7.13;;
61903;SDS011;47857;52.270;6.804;2023-07-24T09:46:06;10.30;;;7.22;;
61903;SDS011;47857;52.270;6.804;2023-07-24T09:48:32;9.25;;;7.43;;
61903;SDS011;47857;52.270;6.804;2023-07-24T09:50:59;11.48;;;8.10;;
61903;SDS011;47857;52.270;6.804;2023-07-24T09:56:04;13.15;;;9.10;;
61903;SDS011;47857;52.270;6.804;2023-07-24T09:58:40;8.60;;;6.70;;
61903;SDS011;47857;52.270;6.804;2023-07-24T10:01:06;9.98;;;7.05;;
61903;SDS011;47857;52.270;6.804;2023-07-24T10:03:39;10.75;;;6.30;;
61903;SDS011;47857;52.270;6.804;2023-07-24T10:06:08;7.68;;;5.82;;
61903;SDS011;47857;52.270;6.804;2023-07-24T10:08:37;11.30;;;7.40;;
61903;SDS011;47857;52.270;6.804;2023-07-24T10:11:04;8.93;;;7.47;;
61903;SDS011;47857;52.270;6.804;2023-07-24T10:13:29;10.60;;;7.80;;
61903;SDS011;47857;52.270;6.804;2023-07-24T10:16:01;10.00;;;7.97;;
61903;SDS011;47857;52.270;6.804;2023-07-24T10:18:30;9.00;;;7.13;;
61903;SDS011;47857;52.270;6.804;2023-07-24T10:21:09;14.63;;;7.60;;
61903;SDS011;47857;52.270;6.804;2023-07-24T10:23:36;11.20;;;8.15;;
61903;SDS011;47857;52.270;6.804;2023-07-24T10:26:03;10.18;;;7.78;;
61903;SDS011;47857;52.270;6.804;2023-07-24T10:28:36;10.50;;;8.25;;
61903;SDS011;47857;52.270;6.804;2023-07-24T10:31:04;10.13;;;7.32;;
61903;SDS011;47857;52.270;6.804;2023-07-24T10:33:34;8.85;;;7.82;;
61903;SDS011;47857;52.270;6.804;2023-07-24T10:36:09;8.27;;;6.85;;
61903;SDS011;47857;52.270;6.804;2023-07-24T10:38:42;8.13;;;7.22;;
61903;SDS011;47857;52.270;6.804;2023-07-24T10:41:08;13.57;;;8.95;;
61903;SDS011;47857;52.270;6.804;2023-07-24T10:43:48;9.93;;;7.88;;
61903;SDS011;47857;52.270;6.804;2023-07-24T10:46:16;7.72;;;6.30;;
61903;SDS011;47857;52.270;6.804;2023-07-24T10:48:43;9.25;;;7.13;;
61903;SDS011;47857;52.270;6.804;2023-07-24T10:51:09;9.50;;;7.03;;
61903;SDS011;47857;52.270;6.804;2023-07-24T10:53:36;10.82;;;6.78;;
61903;SDS011;47857;52.270;6.804;2023-07-24T10:56:03;9.75;;;7.28;;
61903;SDS011;47857;52.270;6.804;2023-07-24T10:58:30;7.43;;;6.53;;
61903;SDS011;47857;52.270;6.804;2023-07-24T11:00:56;9.52;;;7.03;;
61903;SDS011;47857;52.270;6.804;2023-07-24T11:03:22;8.55;;;6.90;;
61903;SDS011;47857;52.270;6.804;2023-07-24T11:05:49;10.07;;;6.75;;
61903;SDS011;47857;52.270;6.804;2023-07-24T11:08:15;9.40;;;7.35;;
61903;SDS011;47857;52.270;6.804;2023-07-24T11:10:49;10.30;;;7.35;;
61903;SDS011;47857;52.270;6.804;2023-07-24T11:13:15;9.18;;;7.03;;
61903;SDS011;47857;52.270;6.804;2023-07-24T11:15:42;9.50;;;6.93;;
61903;SDS011;47857;52.270;6.804;2023-07-24T11:18:07;10.77;;;7.43;;
61903;SDS011;47857;52.270;6.804;2023-07-24T11:20:36;8.45;;;7.13;;
61903;SDS011;47857;52.270;6.804;2023-07-24T11:23:14;8.60;;;7.10;;
61903;SDS011;47857;52.270;6.804;2023-07-24T11:25:40;8.38;;;6.80;;
61903;SDS011;47857;52.270;6.804;2023-07-24T11:28:06;9.75;;;7.30;;
61903;SDS011;47857;52.270;6.804;2023-07-24T11:30:33;9.20;;;6.90;;
61903;SDS011;47857;52.270;6.804;2023-07-24T11:32:59;9.75;;;6.85;;
61903;SDS011;47857;52.270;6.804;2023-07-24T11:35:26;10.65;;;6.90;;
61903;SDS011;47857;52.270;6.804;2023-07-24T11:37:52;8.50;;;6.38;;
61903;SDS011;47857;52.270;6.804;2023-07-24T11:40:17;8.23;;;5.95;;
61903;SDS011;47857;52.270;6.804;2023-07-24T11:42:45;7.70;;;6.55;;
61903;SDS011;47857;52.270;6.804;2023-07-24T11:45:12;13.15;;;10.27;;
61903;SDS011;47857;52.270;6.804;2023-07-24T11:47:45;13.35;;;9.07;;
61903;SDS011;47857;52.270;6.804;2023-07-24T11:50:11;8.75;;;7.25;;
61903;SDS011;47857;52.270;6.804;2023-07-24T11:52:37;13.50;;;10.32;;
61903;SDS011;47857;52.270;6.804;2023-07-24T11:55:05;9.60;;;7.07;;
61903;SDS011;47857;52.270;6.804;2023-07-24T11:57:31;11.32;;;8.57;;
61903;SDS011;47857;52.270;6.804;2023-07-24T11:59:56;10.32;;;7.35;;
61903;SDS011;47857;52.270;6.804;2023-07-24T12:02:26;8.98;;;6.80;;
61903;SDS011;47857;52.270;6.804;2023-07-24T12:04:56;8.98;;;6.60;;
61903;SDS011;47857;52.270;6.804;2023-07-24T12:07:32;12.35;;;7.20;;
61903;SDS011;47857;52.270;6.804;2023-07-24T12:09:59;8.77;;;6.63;;
61903;SDS011;47857;52.270;6.804;2023-07-24T12:12:36;6.95;;;6.00;;
61903;SDS011;47857;52.270;6.804;2023-07-24T12:15:02;7.60;;;6.22;;
61903;SDS011;47857;52.270;6.804;2023-07-24T12:17:28;10.50;;;7.13;;
61903;SDS011;47857;52.270;6.804;2023-07-24T12:19:53;13.70;;;5.97;;
61903;SDS011;47857;52.270;6.804;2023-07-24T12:22:19;10.75;;;6.00;;
61903;SDS011;47857;52.270;6.804;2023-07-24T12:24:44;10.57;;;6.68;;
61903;SDS011;47857;52.270;6.804;2023-07-24T12:27:10;9.20;;;6.60;;
61903;SDS011;47857;52.270;6.804;2023-07-24T12:29:35;8.00;;;6.47;;
61903;SDS011;47857;52.270;6.804;2023-07-24T12:32:01;9.77;;;6.00;;
61903;SDS011;47857;52.270;6.804;2023-07-24T12:34:27;8.95;;;6.05;;
61903;SDS011;47857;52.270;6.804;2023-07-24T12:36:52;9.48;;;6.90;;
61903;SDS011;47857;52.270;6.804;2023-07-24T12:39:19;8.10;;;5.90;;
61903;SDS011;47857;52.270;6.804;2023-07-24T12:41:45;7.80;;;5.15;;
61903;SDS011;47857;52.270;6.804;2023-07-24T12:44:11;8.07;;;6.97;;
61903;SDS011;47857;52.270;6.804;2023-07-24T12:46:36;9.48;;;7.43;;
61903;SDS011;47857;52.270;6.804;2023-07-24T12:49:02;15.60;;;6.95;;
61903;SDS011;47857;52.270;6.804;2023-07-24T12:51:27;22.10;;;7.68;;
61903;SDS011;47857;52.270;6.804;2023-07-24T12:53:53;10.60;;;7.65;;
61903;SDS011;47857;52.270;6.804;2023-07-24T12:56:18;9.35;;;7.35;;
61903;SDS011;47857;52.270;6.804;2023-07-24T12:58:44;9.63;;;7.18;;
61903;SDS011;47857;52.270;6.804;2023-07-24T13:01:12;9.32;;;6.85;;
61903;SDS011;47857;52.270;6.804;2023-07-24T13:03:37;9.93;;;7.90;;
61903;SDS011;47857;52.270;6.804;2023-07-24T13:06:03;8.82;;;6.97;;
61903;SDS011;47857;52.270;6.804;2023-07-24T13:08:28;9.85;;;7.13;;
61903;SDS011;47857;52.270;6.804;2023-07-24T13:10:54;11.13;;;6.90;;
61903;SDS011;47857;52.270;6.804;2023-07-24T13:13:19;17.30;;;8.90;;
61903;SDS011;47857;52.270;6.804;2023-07-24T13:15:45;10.75;;;7.78;;
61903;SDS011;47857;52.270;6.804;2023-07-24T13:18:10;15.05;;;8.90;;
61903;SDS011;47857;52.270;6.804;2023-07-24T13:20:39;10.15;;;7.70;;
61903;SDS011;47857;52.270;6.804;2023-07-24T13:23:05;10.63;;;8.00;;
61903;SDS011;47857;52.270;6.804;2023-07-24T13:25:31;9.20;;;7.40;;
61903;SDS011;47857;52.270;6.804;2023-07-24T13:27:56;12.25;;;7.00;;
61903;SDS011;47857;52.270;6.804;2023-07-24T13:30:22;10.82;;;7.53;;
61903;SDS011;47857;52.270;6.804;2023-07-24T13:32:48;9.15;;;7.35;;
61903;SDS011;47857;52.270;6.804;2023-07-24T13:35:13;10.55;;;7.15;;
61903;SDS011;47857;52.270;6.804;2023-07-24T13:37:40;10.05;;;7.97;;
61903;SDS011;47857;52.270;6.804;2023-07-24T13:40:06;10.95;;;7.95;;
61903;SDS011;47857;52.270;6.804;2023-07-24T13:42:32;9.95;;;8.52;;
61903;SDS011;47857;52.270;6.804;2023-07-24T13:44:58;9.32;;;7.90;;
61903;SDS011;47857;52.270;6.804;2023-07-24T13:47:23;11.77;;;8.60;;
61903;SDS011;47857;52.270;6.804;2023-07-24T13:49:49;10.02;;;7.78;;
61903;SDS011;47857;52.270;6.804;2023-07-24T13:52:14;9.45;;;7.30;;
61903;SDS011;47857;52.270;6.804;2023-07-24T13:54:40;9.50;;;7.25;;
61903;SDS011;47857;52.270;6.804;2023-07-24T13:57:05;10.57;;;7.88;;
61903;SDS011;47857;52.270;6.804;2023-07-24T13:59:34;12.68;;;7.95;;
61903;SDS011;47857;52.270;6.804;2023-07-24T14:02:00;15.38;;;11.90;;
61903;SDS011;47857;52.270;6.804;2023-07-24T14:04:25;27.67;;;19.00;;
61903;SDS011;47857;52.270;6.804;2023-07-24T14:06:51;15.98;;;11.02;;
61903;SDS011;47857;52.270;6.804;2023-07-24T14:09:16;14.77;;;8.45;;
61903;SDS011;47857;52.270;6.804;2023-07-24T14:11:42;17.67;;;11.82;;
61903;SDS011;47857;52.270;6.804;2023-07-24T14:14:08;17.52;;;10.70;;
61903;SDS011;47857;52.270;6.804;2023-07-24T14:16:34;8.45;;;6.68;;
61903;SDS011;47857;52.270;6.804;2023-07-24T14:18:59;8.30;;;6.60;;
61903;SDS011;47857;52.270;6.804;2023-07-24T14:21:25;9.07;;;7.20;;
61903;SDS011;47857;52.270;6.804;2023-07-24T14:23:51;9.07;;;7.32;;
61903;SDS011;47857;52.270;6.804;2023-07-24T14:26:17;10.85;;;7.03;;
61903;SDS011;47857;52.270;6.804;2023-07-24T14:28:43;11.20;;;7.90;;
61903;SDS011;47857;52.270;6.804;2023-07-24T14:31:08;7.32;;;6.60;;
61903;SDS011;47857;52.270;6.804;2023-07-24T14:33:34;9.38;;;7.07;;
61903;SDS011;47857;52.270;6.804;2023-07-24T14:35:59;8.35;;;6.60;;
61903;SDS011;47857;52.270;6.804;2023-07-24T14:38:25;7.93;;;5.53;;
61903;SDS011;47857;52.270;6.804;2023-07-24T14:40:50;7.78;;;5.35;;
61903;SDS011;47857;52.270;6.804;2023-07-24T14:43:16;10.95;;;7.20;;
61903;SDS011;47857;52.270;6.804;2023-07-24T14:45:41;10.98;;;6.78;;
61903;SDS011;47857;52.270;6.804;2023-07-24T14:48:07;11.52;;;7.88;;
61903;SDS011;47857;52.270;6.804;2023-07-24T14:50:37;9.05;;;6.50;;